Sahuarita, Arizona
Current Conditions -  °F | °C
As of 6:53 AM on Friday 31 Oct 2014 (Local Time) from KTUS Reporting Station
Clear Clear  
Wind Chill: 67°   Ceiling: Unl
Heat Index: 67°   Visibility: 10mi
Dew Point: 43°   Wind: 9mph
Humidity: 42%   Direction: 170°S
Pressure: 30.01"   Gusts: NA
Location:  31.96°N, 110.96°W
Report Text: KTUS 311353Z 17008KT 10SM CLR 19/06 A3001 RMK AO2 SLP123 T01940061
Loading
Personal Weather Stations






























Interactive Weather Map
Tropical Storm Tracking
New forecast layout! Learn more

10-Day Weather Forecast

Advertisements
Track Severe Weather on mobile